M I D A S
Marine Information and Data Acquisition System
Tripno 1667 of the Zeeleeuw from 2009-03-30 06:45:18 to 2009-03-30 15:00:56
Back to CruiseResearch ActivitiesStationsMapUnderway DataData graphs

EquipmentUnitsComments
TimeDGPSUTC
LatitudeDGPSDM.mWGS84
LongitudeDGPSDM.mWGS84
SpeedMeteo Stationm/sRelative wind speed
DirectionMeteo StationdegRelative wind direction
TemperatureMeteo Stationdeg CelciusAir temperature
PressureMeteo StationPaAtmospheric pressure
HumidityMeteo Station%Relative humidity
Missing or incorrect values are displayed as -999
Metereological data collected by the RV Zeeleeuw from 2009-03-30 05:57:48 to 2009-03-30 15:07:51
Time Latitude Longitude Speed Direction Temperature Pressure Humidity
2009-03-30 05:58 51°13.664 2°55.956 1.2 11 3.4 101900 72
2009-03-30 05:59 51°13.664 2°55.957 1.9 347 3.4 101900 72
2009-03-30 06:00 51°13.663 2°55.957 2.1 360 3.4 101900 72
2009-03-30 06:01 51°13.664 2°55.957 2.2 357 3.4 101900 72
2009-03-30 06:02 51°13.663 2°55.957 2.5 355 3.4 101900 72
2009-03-30 06:03 51°13.663 2°55.958 1 7 3.4 101900 72
2009-03-30 06:04 51°13.665 2°55.958 1.6 27 3.4 101900 72
2009-03-30 06:05 51°13.662 2°55.957 2.2 9 3.4 101900 72
2009-03-30 06:06 51°13.664 2°55.957 1.9 7 3.4 101910 71
2009-03-30 06:07 51°13.665 2°55.957 1.6 360 3.4 101910 72
2009-03-30 06:08 51°13.664 2°55.958 1.7 11 3.5 101910 71
2009-03-30 06:09 51°13.664 2°55.958 1.9 8 3.5 101910 71
2009-03-30 06:10 51°13.664 2°55.958 1.9 11 3.5 101910 71
2009-03-30 06:11 51°13.664 2°55.958 1.6 352 3.5 101910 71
2009-03-30 06:12 51°13.664 2°55.958 1.5 355 3.5 101910 71
2009-03-30 06:13 51°13.664 2°55.958 3 4 3.5 101910 71
2009-03-30 06:14 51°13.664 2°55.958 1.3 10 3.5 101920 71
2009-03-30 06:15 51°13.664 2°55.957 3.3 13 3.5 101910 71
2009-03-30 06:16 51°13.664 2°55.958 2.1 11 3.5 101920 71
2009-03-30 06:17 51°13.664 2°55.957 2.4 8 3.5 101920 71
2009-03-30 06:18 51°13.664 2°55.957 1.6 18 3.5 101920 71
2009-03-30 06:19 51°13.663 2°55.958 2.1 15 3.5 101920 71
2009-03-30 06:20 51°13.664 2°55.959 1.8 10 3.5 101930 71
2009-03-30 06:21 51°13.664 2°55.959 2.3 19 3.5 101930 71
2009-03-30 06:22 51°13.664 2°55.959 1.4 25 3.6 101930 71
2009-03-30 06:23 51°13.664 2°55.959 2.7 8 -999 -999 -999
2009-03-30 06:24 51°13.664 2°55.959 3.8 14 3.6 101920 71
2009-03-30 06:25 51°13.663 2°55.959 2.6 17 3.6 101920 70
2009-03-30 06:26 51°13.664 2°55.959 2.9 14 3.6 101930 70
2009-03-30 06:27 51°13.663 2°55.958 2.5 30 3.5 101930 70
2009-03-30 06:28 51°13.663 2°55.958 1.9 17 3.6 101930 70
2009-03-30 06:29 51°13.664 2°55.958 2.4 24 3.6 101930 70
2009-03-30 06:30 51°13.663 2°55.957 2 10 3.6 101930 70
2009-03-30 06:31 51°13.664 2°55.958 3.1 14 3.6 101930 70
2009-03-30 06:32 51°13.664 2°55.958 2.1 3 3.6 101930 70
2009-03-30 06:33 51°13.662 2°55.958 2.6 25 3.7 101930 70
2009-03-30 06:34 51°13.663 2°55.958 2.6 13 3.7 101940 70
2009-03-30 06:35 51°13.663 2°55.958 2.5 8 3.7 101930 70
2009-03-30 06:36 51°13.663 2°55.958 2.4 14 3.7 101930 70
2009-03-30 06:37 51°13.662 2°55.958 4.8 22 -999 -999 -999
2009-03-30 06:38 51°13.662 2°55.956 2.5 25 3.7 101940 69
2009-03-30 06:39 51°13.677 2°55.913 1.8 38 3.7 101940 69
2009-03-30 06:40 51°13.694 2°55.85 3.6 33 3.7 101940 69
2009-03-30 06:41 51°13.703 2°55.773 3.1 33 3.8 101940 69
2009-03-30 06:42 51°13.706 2°55.741 2.1 37 3.8 101950 69
2009-03-30 06:43 51°13.713 2°55.746 2.7 35 3.8 101940 69
2009-03-30 06:44 51°13.717 2°55.737 1.5 263 3.9 101940 69
2009-03-30 06:45 51°13.795 2°55.665 2.6 324 4.1 101940 69
2009-03-30 06:46 51°13.924 2°55.562 2.6 322 4.1 101940 68
2009-03-30 06:47 51°14.065 2°55.459 4.1 30 4.1 101940 68
2009-03-30 06:48 51°14.203 2°55.342 3.5 38 4.1 101940 68
2009-03-30 06:49 51°14.321 2°55.166 4.2 32 4.1 101930 67
2009-03-30 06:50 51°14.426 2°54.949 9.6 35 4.2 101930 66
2009-03-30 06:51 51°14.411 2°54.663 12 317 4.4 101910 65
2009-03-30 06:52 51°14.319 2°54.369 11.1 316 4.4 101910 66
2009-03-30 06:53 51°14.274 2°54.124 6.8 246 4.4 101920 66
2009-03-30 06:54 51°14.354 2°54.044 1.4 37 4.5 101950 67
2009-03-30 06:55 51°14.503 2°54.058 1.6 257 4.6 101960 67
2009-03-30 06:56 51°14.689 2°54.084 2.2 244 4.6 101950 67
2009-03-30 06:57 51°14.878 2°54.122 2.5 247 4.7 101960 67
2009-03-30 06:58 51°15.068 2°54.151 2.4 240 4.8 101950 66
2009-03-30 06:59 51°15.258 2°54.188 2.2 246 4.8 101960 66
2009-03-30 07:00 51°15.45 2°54.231 3.1 247 4.9 101960 66
2009-03-30 07:01 51°15.647 2°54.274 2.3 239 5 101950 66
2009-03-30 07:02 51°15.839 2°54.316 3.2 250 5 101960 66
2009-03-30 07:03 51°16.012 2°54.348 1.9 261 5.1 101960 65
2009-03-30 07:04 51°16.143 2°54.353 4 266 5.1 101950 65
2009-03-30 07:05 51°16.205 2°54.297 4.3 267 5 101960 64
2009-03-30 07:06 51°16.24 2°54.246 4.1 264 5 101960 65
2009-03-30 07:07 51°16.254 2°54.201 6.1 260 4.9 101960 67
2009-03-30 07:08 51°16.262 2°54.159 7.7 255 5 101960 67
2009-03-30 07:09 51°16.267 2°54.121 7.5 258 5 101960 68
2009-03-30 07:10 51°16.271 2°54.085 6.1 252 5 101960 67
2009-03-30 07:11 51°16.273 2°54.053 7.6 256 5 101960 68
2009-03-30 07:12 51°16.278 2°54.018 6.3 250 5.1 101960 67
2009-03-30 07:13 51°16.307 2°53.887 7.5 238 5.1 101960 67
2009-03-30 07:14 51°16.399 2°53.669 8.4 242 5.1 101950 67
2009-03-30 07:15 51°16.539 2°53.451 8.3 237 5.1 101960 67
2009-03-30 07:16 51°16.688 2°53.222 8.7 30 5.2 101950 68
2009-03-30 07:17 51°16.832 2°52.987 8.7 238 5.1 101950 66
2009-03-30 07:18 51°16.973 2°52.755 8.5 33 5.3 101950 67
2009-03-30 07:19 51°17.117 2°52.523 9 239 5.3 101950 66
2009-03-30 07:20 51°17.275 2°52.315 7.9 234 5.3 101960 65
2009-03-30 07:21 51°17.44 2°52.123 6.7 239 5.4 101970 66
2009-03-30 07:22 51°17.608 2°51.938 8.9 241 5.5 101960 66
2009-03-30 07:23 51°17.775 2°51.752 8.5 238 5.5 101960 66
2009-03-30 07:24 51°17.937 2°51.556 6.8 241 5.6 101970 66
2009-03-30 07:25 51°18.106 2°51.374 7.7 240 5.7 101970 66
2009-03-30 07:26 51°18.259 2°51.223 7.1 251 5.7 101980 66
2009-03-30 07:27 51°18.372 2°51.102 6.6 257 5.8 101990 66
2009-03-30 07:28 51°18.447 2°51.014 8 258 6 101990 67
2009-03-30 07:29 51°18.495 2°50.957 6.2 262 6 102000 66
2009-03-30 07:30 51°18.516 2°50.919 8.2 259 6.1 101990 66
2009-03-30 07:31 51°18.529 2°50.884 7.1 255 6.1 101990 66
2009-03-30 07:32 51°18.538 2°50.854 6.8 251 6.1 101990 66
2009-03-30 07:33 51°18.544 2°50.827 7.6 250 6.2 101990 66
2009-03-30 07:34 51°18.553 2°50.796 7.7 257 6.3 101990 65
2009-03-30 07:35 51°18.594 2°50.757 4.6 36 6.2 102010 65
2009-03-30 07:36 51°18.644 2°50.825 2.9 31 6.4 102000 66
2009-03-30 07:37 51°18.711 2°51.002 2.5 17 6.4 102000 66
2009-03-30 07:38 51°18.78 2°51.25 3.7 14 6.5 102000 66
2009-03-30 07:39 51°18.837 2°51.52 4 13 6.5 102000 66
2009-03-30 07:40 51°18.894 2°51.79 3.9 14 6.3 102000 65
2009-03-30 07:41 51°18.949 2°52.061 3.9 9 6.3 102000 66
2009-03-30 07:42 51°19.003 2°52.332 3.5 7 6.3 102000 66
2009-03-30 07:43 51°19.055 2°52.602 4.1 9 6.3 102000 65
2009-03-30 07:44 51°19.11 2°52.871 3.8 12 6.2 102010 65
2009-03-30 07:45 51°19.168 2°53.138 3.1 13 6.2 102010 66
2009-03-30 07:46 51°19.224 2°53.406 3.5 16 6.2 102010 66
2009-03-30 07:47 51°19.263 2°53.682 3.6 10 6.2 102010 66
2009-03-30 07:48 51°19.293 2°53.96 3.7 5 6.1 102010 65
2009-03-30 07:49 51°19.326 2°54.236 2.9 5 6.2 102010 66
2009-03-30 07:50 51°19.355 2°54.516 3.7 5 6.2 102020 66
2009-03-30 07:51 51°19.394 2°54.789 2.6 5 6.1 102020 66
2009-03-30 07:52 51°19.453 2°55.051 2.1 4 6.2 102020 66
2009-03-30 07:53 51°19.521 2°55.31 2.5 7 6.1 102020 66
2009-03-30 07:54 51°19.572 2°55.576 2.7 13 6.2 102020 66
2009-03-30 07:55 51°19.629 2°55.844 3.4 13 6.2 102030 67
2009-03-30 07:56 51°19.688 2°56.116 2.4 10 6.2 102030 67
2009-03-30 07:57 51°19.745 2°56.388 3.9 11 6.2 102030 66
2009-03-30 07:58 51°19.801 2°56.659 2.4 15 6.2 102030 67
2009-03-30 07:59 51°19.861 2°56.924 3 11 6.2 102040 66
2009-03-30 08:00 51°19.916 2°57.189 2.9 18 6.2 102040 66
2009-03-30 08:01 51°19.969 2°57.453 3.1 19 6.2 102040 65
2009-03-30 08:02 51°20.018 2°57.72 2.5 14 6.2 102040 66
2009-03-30 08:03 51°20.066 2°57.986 2.9 11 6.2 102040 66
2009-03-30 08:04 51°20.115 2°58.25 2.8 17 6.2 102040 65
2009-03-30 08:05 51°20.171 2°58.508 2.9 21 6.2 102040 66
2009-03-30 08:06 51°20.219 2°58.768 3 22 6.3 102050 66
2009-03-30 08:07 51°20.268 2°59.026 2.9 4 6.3 102040 66
2009-03-30 08:08 51°20.322 2°59.279 3.3 12 6.3 102040 66
2009-03-30 08:09 51°20.375 2°59.536 3.4 17 6.2 102050 66
2009-03-30 08:10 51°20.422 2°59.789 2.4 8 6.3 102050 66
2009-03-30 08:11 51°20.465 3°0.049 2.7 19 6.3 102050 67
2009-03-30 08:12 51°20.511 3°0.307 2.2 26 6.2 102060 66
2009-03-30 08:13 51°20.56 3°0.56 3.3 14 6.3 102050 66
2009-03-30 08:14 51°20.607 3°0.815 2.9 13 6.3 102050 67
2009-03-30 08:15 51°20.655 3°1.069 3.7 16 6.3 102050 67
2009-03-30 08:16 51°20.706 3°1.326 3.7 10 6.3 102060 67
2009-03-30 08:17 51°20.756 3°1.573 3.9 11 6.2 102060 67
2009-03-30 08:18 51°20.808 3°1.825 3.7 16 6.2 102060 67
2009-03-30 08:19 51°20.858 3°2.07 2.5 18 6.2 102060 67
2009-03-30 08:20 51°20.907 3°2.323 3.3 16 6.1 102060 67
2009-03-30 08:21 51°20.954 3°2.569 3.2 13 6.1 102060 66
2009-03-30 08:22 51°21 3°2.819 2.8 15 6.1 102070 66
2009-03-30 08:23 51°21.041 3°3.072 3.1 17 6.1 102060 66
2009-03-30 08:24 51°21.084 3°3.323 3.3 20 6.1 102070 66
2009-03-30 08:25 51°21.133 3°3.577 2.3 17 6.2 102070 66
2009-03-30 08:26 51°21.179 3°3.821 3.2 13 6.2 102070 66
2009-03-30 08:27 51°21.219 3°4.075 3.1 11 6.3 102070 66
2009-03-30 08:28 51°21.275 3°4.315 2.8 17 6.3 102080 67
2009-03-30 08:29 51°21.331 3°4.559 1.8 32 6.3 102080 66
2009-03-30 08:30 51°21.386 3°4.798 1.9 20 6.3 102080 66
2009-03-30 08:31 51°21.447 3°5.042 2.2 15 6.4 102080 66
2009-03-30 08:32 51°21.507 3°5.277 2.2 14 6.4 102080 66
2009-03-30 08:33 51°21.561 3°5.521 3.3 27 6.5 102080 66
2009-03-30 08:34 51°21.62 3°5.766 1.8 26 6.4 102080 65
2009-03-30 08:35 51°21.679 3°6.001 2.5 18 6.4 102090 65
2009-03-30 08:36 51°21.732 3°6.25 2.6 22 6.5 102080 66
2009-03-30 08:37 51°21.768 3°6.498 2.9 16 6.6 102080 65
2009-03-30 08:38 51°21.786 3°6.762 4.4 8 6.5 102080 65
2009-03-30 08:39 51°21.77 3°7.027 4.8 15 6.6 102080 66
2009-03-30 08:40 51°21.752 3°7.293 4.1 4 6.4 102080 66
2009-03-30 08:41 51°21.738 3°7.559 3.7 6 6.4 102080 66
2009-03-30 08:42 51°21.77 3°7.804 2 32 6.4 102080 66
2009-03-30 08:43 51°21.83 3°8.05 2.6 12 6.5 102090 67
2009-03-30 08:44 51°21.898 3°8.282 1.7 17 6.5 102090 66
2009-03-30 08:45 51°21.975 3°8.515 2.5 26 6.6 102090 66
2009-03-30 08:46 51°22.033 3°8.752 1.9 18 6.6 102090 66
2009-03-30 08:47 51°22.082 3°9.004 3.3 14 6.6 102090 65
2009-03-30 08:48 51°22.121 3°9.259 2.7 14 6.7 102090 65
2009-03-30 08:49 51°22.164 3°9.515 1.7 21 6.6 102090 65
2009-03-30 08:50 51°22.211 3°9.769 1.9 11 6.7 102090 66
2009-03-30 08:51 51°22.249 3°10.023 2.6 4 6.7 102090 65
2009-03-30 08:52 51°22.289 3°10.286 2.6 14 6.7 102090 66
2009-03-30 08:53 51°22.331 3°10.556 2.9 3 6.6 102090 66
2009-03-30 08:54 51°22.366 3°10.821 3 6 6.6 102090 65
2009-03-30 08:55 51°22.391 3°11.075 3.1 13 6.6 102090 66
2009-03-30 08:56 51°22.411 3°11.346 3.2 5 6.6 102090 66
2009-03-30 08:57 51°22.434 3°11.617 3.4 16 6.5 102090 66
2009-03-30 08:58 51°22.456 3°11.887 3.7 14 6.5 102100 66
2009-03-30 08:59 51°22.477 3°12.156 2.8 7 6.5 102100 65
2009-03-30 09:00 51°22.499 3°12.427 3.3 7 6.5 102100 66
2009-03-30 09:01 51°22.525 3°12.697 2.3 18 6.6 102100 66
2009-03-30 09:02 51°22.55 3°12.951 3 29 6.6 102100 66
2009-03-30 09:03 51°22.566 3°13.11 2.6 39 6.6 102100 65
2009-03-30 09:04 51°22.589 3°13.177 4.9 31 6.7 102100 66
2009-03-30 09:05 51°22.623 3°13.173 5.3 38 6.7 102100 64
2009-03-30 09:06 51°22.647 3°13.157 6.5 32 6.6 102110 65
2009-03-30 09:07 51°22.664 3°13.142 6.4 36 6.6 102110 65
2009-03-30 09:08 51°22.68 3°13.125 6.4 36 6.5 102110 66
2009-03-30 09:09 51°22.696 3°13.103 4 265 6.5 102110 66
2009-03-30 09:10 51°22.782 3°13.064 6.4 247 6.6 102100 67
2009-03-30 09:11 51°22.938 3°12.994 6.9 243 6.7 102100 67
2009-03-30 09:12 51°23.121 3°12.93 7.2 31 6.8 102100 67
2009-03-30 09:13 51°23.312 3°12.835 8.5 241 6.8 102100 66
2009-03-30 09:14 51°23.493 3°12.725 7.7 240 6.8 102090 66
2009-03-30 09:15 51°23.68 3°12.611 7.7 240 6.8 102100 66
2009-03-30 09:16 51°23.862 3°12.504 7.8 243 6.8 102100 66
2009-03-30 09:17 51°24.045 3°12.384 7.5 240 6.8 102090 66
2009-03-30 09:18 51°24.224 3°12.232 9.1 238 6.8 102090 67
2009-03-30 09:19 51°24.399 3°12.054 9.5 237 6.8 102090 67
2009-03-30 09:20 51°24.568 3°11.86 9.5 237 6.8 102090 67
2009-03-30 09:21 51°24.739 3°11.69 9 239 6.8 102090 67
2009-03-30 09:22 51°24.91 3°11.527 8.8 239 6.7 102100 68
2009-03-30 09:23 51°25.08 3°11.372 7.8 241 6.7 102100 68
2009-03-30 09:24 51°25.248 3°11.225 8.7 240 6.8 102110 68
2009-03-30 09:25 51°25.409 3°11.066 7.7 36 6.8 102100 69
2009-03-30 09:26 51°25.566 3°10.915 7.4 236 6.9 102100 69
2009-03-30 09:27 51°25.711 3°10.757 9.7 238 6.9 102100 69
2009-03-30 09:28 51°25.836 3°10.557 9 34 6.9 102090 69
2009-03-30 09:29 51°25.959 3°10.343 8.7 234 6.9 102100 69
2009-03-30 09:30 51°26.053 3°10.091 9.8 34 6.9 102090 69
2009-03-30 09:31 51°26.116 3°9.8 10.1 35 7 102090 70
2009-03-30 09:32 51°26.177 3°9.508 11.6 32 6.9 102090 70
2009-03-30 09:33 51°26.242 3°9.216 10.6 33 6.9 102090 70
2009-03-30 09:34 51°26.31 3°8.929 11.2 34 6.9 102080 70
2009-03-30 09:35 51°26.37 3°8.683 8.7 29 6.9 102090 70
2009-03-30 09:36 51°26.41 3°8.495 8.6 30 6.9 102100 71
2009-03-30 09:37 51°26.422 3°8.378 7.2 238 7 102110 71
2009-03-30 09:38 51°26.421 3°8.324 7.4 254 7 102100 71
2009-03-30 09:39 51°26.418 3°8.293 7 257 7.1 102120 71
2009-03-30 09:40 51°26.412 3°8.268 6.9 253 7.2 102110 71
2009-03-30 09:41 51°26.402 3°8.249 7.6 252 7.2 102120 70
2009-03-30 09:42 51°26.394 3°8.209 8.2 235 7.2 102110 70
2009-03-30 09:43 51°26.417 3°8.046 9.9 36 7.2 102100 70
2009-03-30 09:44 51°26.493 3°7.8 10.4 36 7.1 102100 70
2009-03-30 09:45 51°26.578 3°7.533 9.5 35 7.1 102100 70
2009-03-30 09:46 51°26.67 3°7.254 9.3 233 7.1 102090 70
2009-03-30 09:47 51°26.777 3°6.998 9.6 32 7 102100 71
2009-03-30 09:48 51°26.893 3°6.759 10.5 34 7.1 102100 71
2009-03-30 09:49 51°27.012 3°6.507 10.6 37 7.1 102090 72
2009-03-30 09:50 51°27.123 3°6.258 10.5 35 7.1 102090 72
2009-03-30 09:51 51°27.235 3°6.001 11.3 35 7.1 102090 72
2009-03-30 09:52 51°27.348 3°5.739 12.4 33 7.1 102080 72
2009-03-30 09:53 51°27.458 3°5.478 10 32 7.1 102090 73
2009-03-30 09:54 51°27.568 3°5.224 9.6 36 7.1 102090 73
2009-03-30 09:55 51°27.68 3°4.965 9.5 31 7.1 102090 74
2009-03-30 09:56 51°27.792 3°4.707 8.5 37 7.1 102090 74
2009-03-30 09:57 51°27.902 3°4.445 11.3 32 7.1 102080 75
2009-03-30 09:58 51°28.014 3°4.184 10.7 34 7.1 102090 76
2009-03-30 09:59 51°28.125 3°3.921 10.7 34 7.1 102090 78
2009-03-30 10:00 51°28.232 3°3.663 9.9 31 7.2 102090 80
2009-03-30 10:01 51°28.284 3°3.501 9.2 234 7.2 102100 81
2009-03-30 10:02 51°28.287 3°3.414 8.1 30 7.2 102100 81
2009-03-30 10:03 51°28.276 3°3.379 6.9 36 7.2 102100 81
2009-03-30 10:04 51°28.265 3°3.356 7.3 246 7.3 102100 81
2009-03-30 10:05 51°28.252 3°3.337 8.8 257 7.4 102110 81
2009-03-30 10:06 51°28.239 3°3.319 5.5 262 7.4 102120 81
2009-03-30 10:07 51°28.225 3°3.303 5.8 263 7.5 102120 81
2009-03-30 10:08 51°28.218 3°3.281 6.2 250 7.5 102110 81
2009-03-30 10:09 51°28.219 3°3.222 7.2 39 7.5 102100 81
2009-03-30 10:10 51°28.208 3°3.096 11.2 320 7.5 102090 80
2009-03-30 10:11 51°28.193 3°2.82 12.8 326 7.5 102080 80
2009-03-30 10:12 51°28.137 3°2.493 12.7 324 7.5 102090 80
2009-03-30 10:13 51°28.074 3°2.155 12.7 326 7.5 102080 81
2009-03-30 10:14 51°28.013 3°1.813 11.5 325 7.5 102080 82
2009-03-30 10:15 51°27.96 3°1.479 13.8 325 7.5 102080 82
2009-03-30 10:16 51°27.901 3°1.128 12.2 326 7.5 102080 82
2009-03-30 10:17 51°27.841 3°0.776 13.2 328 7.5 102080 82
2009-03-30 10:18 51°27.778 3°0.437 13.1 328 7.5 102090 82
2009-03-30 10:19 51°27.709 3°0.087 13.7 328 7.5 102090 82
2009-03-30 10:20 51°27.645 2°59.746 14.9 329 7.4 102090 81
2009-03-30 10:21 51°27.581 2°59.393 14.6 329 7.4 102090 81
2009-03-30 10:22 51°27.521 2°59.051 12 326 7.5 102090 81
2009-03-30 10:23 51°27.46 2°58.698 12.4 325 7.5 102090 81
2009-03-30 10:24 51°27.401 2°58.349 13.7 327 7.5 102090 81
2009-03-30 10:25 51°27.342 2°58.007 12.1 327 7.5 102090 81
2009-03-30 10:26 51°27.278 2°57.654 12.4 326 7.5 102090 81
2009-03-30 10:27 51°27.217 2°57.313 11.9 328 7.5 102100 80
2009-03-30 10:28 51°27.15 2°56.961 14.9 330 7.5 102100 80
2009-03-30 10:29 51°27.09 2°56.616 13.9 328 7.4 102100 78
2009-03-30 10:30 51°27.03 2°56.261 12.1 328 7.5 102110 78
2009-03-30 10:31 51°26.969 2°55.92 14.6 331 7.5 102100 78
2009-03-30 10:32 51°26.908 2°55.569 14 329 7.5 102110 78
2009-03-30 10:33 51°26.843 2°55.222 14.1 329 7.5 102120 77
2009-03-30 10:34 51°26.782 2°54.878 12.7 331 7.5 102120 77
2009-03-30 10:35 51°26.721 2°54.528 14 332 7.4 102110 77
2009-03-30 10:36 51°26.662 2°54.176 14 330 7.5 102120 77
2009-03-30 10:37 51°26.602 2°53.829 14.7 334 7.5 102120 78
2009-03-30 10:38 51°26.541 2°53.482 13.2 330 7.4 102110 77
2009-03-30 10:39 51°26.478 2°53.139 13.7 331 7.4 102110 77
2009-03-30 10:40 51°26.421 2°52.792 13.5 328 7.5 102120 78
2009-03-30 10:41 51°26.36 2°52.445 14.6 332 7.5 102110 79
2009-03-30 10:42 51°26.303 2°52.097 14.7 330 7.5 102120 79
2009-03-30 10:43 51°26.243 2°51.748 14.8 328 7.5 102110 79
2009-03-30 10:44 51°26.186 2°51.399 14.2 333 7.5 102120 79
2009-03-30 10:45 51°26.13 2°51.049 13.7 331 7.5 102110 79
2009-03-30 10:46 51°26.068 2°50.693 14.3 333 7.5 102110 79
2009-03-30 10:47 51°26.013 2°50.34 14.7 329 7.5 102110 80
2009-03-30 10:48 51°25.956 2°49.988 13.1 327 7.5 102100 79
2009-03-30 10:49 51°25.899 2°49.638 13.5 330 7.5 102100 81
2009-03-30 10:50 51°25.843 2°49.294 14.8 330 7.5 102110 81
2009-03-30 10:51 51°25.815 2°48.977 12 320 7.5 102110 80
2009-03-30 10:52 51°25.879 2°48.82 10.8 235 7.4 102120 80
2009-03-30 10:53 51°25.925 2°48.7 10.8 20 7.5 102110 80
2009-03-30 10:54 51°25.965 2°48.605 9.6 31 7.5 102110 80
2009-03-30 10:55 51°25.975 2°48.554 9.5 21 7.5 102120 80
2009-03-30 10:56 51°25.974 2°48.518 8.2 241 7.5 102120 80
2009-03-30 10:57 51°25.967 2°48.49 8 20 7.5 102120 79
2009-03-30 10:58 51°25.958 2°48.471 7.3 25 7.6 102110 80
2009-03-30 10:59 51°25.945 2°48.457 9.5 252 7.7 102110 80
2009-03-30 11:00 51°25.93 2°48.446 7.7 259 7.7 102120 80
2009-03-30 11:01 51°25.891 2°48.435 8.1 269 7.8 102120 80
2009-03-30 11:02 51°25.855 2°48.415 7.2 36 7.7 102120 79
2009-03-30 11:03 51°25.834 2°48.457 7.6 28 7.6 102120 80
2009-03-30 11:04 51°25.735 2°48.464 9.6 358 7.5 102120 80
2009-03-30 11:05 51°25.553 2°48.439 12.5 355 7.4 102110 80
2009-03-30 11:06 51°25.341 2°48.405 11.3 354 7.3 102110 80
2009-03-30 11:07 51°25.13 2°48.37 12.3 355 7.3 102110 81
2009-03-30 11:08 51°24.918 2°48.334 11.7 357 7.2 102110 81
2009-03-30 11:09 51°24.705 2°48.302 12.2 357 7.2 102110 81
2009-03-30 11:10 51°24.492 2°48.271 11.1 351 7.2 102100 81
2009-03-30 11:11 51°24.279 2°48.244 11.4 353 7.1 102100 81
2009-03-30 11:12 51°24.065 2°48.212 11.3 354 7.1 102110 81
2009-03-30 11:13 51°23.851 2°48.184 11.9 354 7.2 102110 81
2009-03-30 11:14 51°23.636 2°48.159 11.6 359 7.1 102110 81
2009-03-30 11:15 51°23.42 2°48.135 12.1 355 7.2 102100 82
2009-03-30 11:16 51°23.204 2°48.108 11.3 355 7.1 102100 81
2009-03-30 11:17 51°22.987 2°48.08 12.5 353 7.2 102110 82
2009-03-30 11:18 51°22.771 2°48.058 11.1 354 7.1 102110 81
2009-03-30 11:19 51°22.553 2°48.032 11 352 7.2 102110 82
2009-03-30 11:20 51°22.337 2°48.016 10.4 353 7.1 102120 81
2009-03-30 11:21 51°22.119 2°48.003 11.2 354 7.1 102120 81
2009-03-30 11:22 51°21.911 2°47.987 11.8 358 7.1 102110 80
2009-03-30 11:23 51°21.699 2°47.971 11.4 355 7.1 102120 80
2009-03-30 11:24 51°21.49 2°47.939 10.8 352 7.1 102110 79
2009-03-30 11:25 51°21.285 2°47.861 10.8 350 7.1 102120 79
2009-03-30 11:26 51°21.087 2°47.722 12.1 346 7.2 102120 79
2009-03-30 11:27 51°20.915 2°47.526 13.8 344 7.2 102120 79
2009-03-30 11:28 51°20.77 2°47.271 13.2 336 7.3 102120 79
2009-03-30 11:29 51°20.658 2°46.975 13.5 334 7.4 102120 78
2009-03-30 11:30 51°20.559 2°46.667 12.5 335 7.5 102130 77
2009-03-30 11:31 51°20.492 2°46.341 13.7 329 7.5 102130 78
2009-03-30 11:32 51°20.452 2°45.999 11.4 329 7.5 102120 77
2009-03-30 11:33 51°20.414 2°45.666 13.7 331 7.6 102130 77
2009-03-30 11:34 51°20.369 2°45.322 13.8 331 7.6 102130 77
2009-03-30 11:35 51°20.323 2°44.989 13.9 330 7.6 102130 77
2009-03-30 11:36 51°20.272 2°44.652 13.4 332 7.5 102120 76
2009-03-30 11:37 51°20.229 2°44.312 12.6 332 7.6 102130 76
2009-03-30 11:38 51°20.182 2°43.972 13.9 332 7.6 102120 77
2009-03-30 11:39 51°20.133 2°43.628 12.5 332 7.6 102120 76
2009-03-30 11:40 51°20.083 2°43.295 12.4 328 7.6 102120 76
2009-03-30 11:41 51°20.04 2°42.953 14.6 327 7.6 102120 75
2009-03-30 11:42 51°20.013 2°42.609 12.7 328 7.6 102110 75
2009-03-30 11:43 51°19.985 2°42.265 13 329 7.7 102120 76
2009-03-30 11:44 51°19.958 2°41.922 12.9 328 7.7 102110 74
2009-03-30 11:45 51°19.931 2°41.581 13.5 329 7.8 102120 75
2009-03-30 11:46 51°19.904 2°41.239 11.5 328 7.8 102120 76
2009-03-30 11:47 51°19.88 2°40.897 13 330 7.8 102130 75
2009-03-30 11:48 51°19.862 2°40.556 14.1 327 7.8 102120 75
2009-03-30 11:49 51°19.848 2°40.229 13.6 325 7.8 102120 75
2009-03-30 11:50 51°19.835 2°39.89 11.8 326 7.9 102120 76
2009-03-30 11:51 51°19.819 2°39.553 12.2 326 7.9 102120 75
2009-03-30 11:52 51°19.8 2°39.217 11.6 327 7.8 102120 74
2009-03-30 11:53 51°19.782 2°38.888 12.2 325 7.8 102110 74
2009-03-30 11:54 51°19.768 2°38.55 11.3 324 7.9 102130 74
2009-03-30 11:55 51°19.75 2°38.217 11.5 326 7.9 102120 74
2009-03-30 11:56 51°19.728 2°37.891 12 325 7.9 102120 74
2009-03-30 11:57 51°19.713 2°37.553 11.8 326 7.9 102130 74
2009-03-30 11:58 51°19.701 2°37.225 12.9 326 8 102130 75
2009-03-30 11:59 51°19.687 2°36.891 12.8 325 7.9 102120 74
2009-03-30 12:00 51°19.678 2°36.559 10.9 327 7.9 102130 74
2009-03-30 12:01 51°19.671 2°36.229 10.2 325 8 102130 74
2009-03-30 12:02 51°19.666 2°35.892 11.6 326 8 102140 74
2009-03-30 12:03 51°19.662 2°35.567 11.7 324 8 102130 74
2009-03-30 12:04 51°19.66 2°35.237 11.7 323 8 102130 74
2009-03-30 12:05 51°19.655 2°34.909 11.8 325 8 102130 75
2009-03-30 12:06 51°19.653 2°34.575 11.4 326 8 102130 74
2009-03-30 12:07 51°19.653 2°34.253 11.5 325 8 102130 74
2009-03-30 12:08 51°19.658 2°33.915 10.7 327 8 102130 74
2009-03-30 12:09 51°19.659 2°33.587 11.9 325 8 102140 74
2009-03-30 12:10 51°19.665 2°33.252 13.2 325 8 102140 74
2009-03-30 12:11 51°19.683 2°32.915 13 324 8 102130 73
2009-03-30 12:12 51°19.698 2°32.589 12.6 321 8 102130 73
2009-03-30 12:13 51°19.71 2°32.25 11.5 324 8.1 102130 73
2009-03-30 12:14 51°19.724 2°31.922 10.6 324 8.1 102130 73
2009-03-30 12:15 51°19.747 2°31.583 11.5 322 8.1 102130 74
2009-03-30 12:16 51°19.77 2°31.267 11 321 8.1 102130 73
2009-03-30 12:17 51°19.791 2°30.95 13.3 322 8.1 102130 74
2009-03-30 12:18 51°19.812 2°30.645 12.3 325 8.1 102120 73
2009-03-30 12:19 51°19.834 2°30.351 12 325 8.1 102130 74
2009-03-30 12:20 51°19.852 2°30.136 7.5 18 8.1 102130 73
2009-03-30 12:21 51°19.908 2°30.093 7.2 252 8.1 102140 73
2009-03-30 12:22 51°19.955 2°30.069 6.6 242 8.1 102150 74
2009-03-30 12:23 51°19.982 2°30.052 5.7 243 8.2 102150 73
2009-03-30 12:24 51°19.999 2°30.048 6 20 8.2 102150 73
2009-03-30 12:25 51°20.011 2°30.052 6.7 247 8.2 102150 73
2009-03-30 12:26 51°20.019 2°30.063 5 246 8.2 102150 73
2009-03-30 12:27 51°20.026 2°30.073 5.3 237 8.2 102150 73
2009-03-30 12:28 51°20.022 2°30.024 8.4 345 8.3 102150 73
2009-03-30 12:29 51°19.942 2°30.044 6.5 3 8.1 102140 73
2009-03-30 12:30 51°19.832 2°30.195 5 6 7.8 102150 75
2009-03-30 12:31 51°19.72 2°30.463 5.6 6 7.7 102150 75
2009-03-30 12:32 51°19.596 2°30.728 5.7 4 7.6 102140 75
2009-03-30 12:33 51°19.464 2°30.973 5.4 4 7.6 102150 76
2009-03-30 12:34 51°19.332 2°31.216 6.3 7 7.6 102150 75
2009-03-30 12:35 51°19.207 2°31.469 5.7 8 7.6 102150 76
2009-03-30 12:36 51°19.09 2°31.728 5.9 9 7.6 102140 76
2009-03-30 12:37 51°18.975 2°31.996 4.9 4 7.6 102140 76
2009-03-30 12:38 51°18.86 2°32.269 6 7 7.6 102140 76
2009-03-30 12:39 51°18.749 2°32.54 4.4 5 7.6 102150 76
2009-03-30 12:40 51°18.639 2°32.813 4.7 3 7.7 102150 76
2009-03-30 12:41 51°18.526 2°33.089 5.7 11 7.7 102150 77
2009-03-30 12:42 51°18.416 2°33.37 4.7 7 7.6 102150 75
2009-03-30 12:43 51°18.304 2°33.652 4.5 6 7.7 102150 76
2009-03-30 12:44 51°18.191 2°33.935 4.1 3 7.7 102150 76
2009-03-30 12:45 51°18.08 2°34.216 4.3 6 7.6 102140 75
2009-03-30 12:46 51°17.97 2°34.496 4.5 3 7.7 102140 76
2009-03-30 12:47 51°17.862 2°34.78 4.3 2 7.6 102150 75
2009-03-30 12:48 51°17.751 2°35.067 4.8 5 7.6 102150 75
2009-03-30 12:49 51°17.628 2°35.344 3.4 4 7.6 102150 74
2009-03-30 12:50 51°17.498 2°35.616 4.3 5 7.7 102150 75
2009-03-30 12:51 51°17.367 2°35.888 4.2 6 7.7 102150 74
2009-03-30 12:52 51°17.228 2°36.141 4.9 2 7.7 102140 74
2009-03-30 12:53 51°17.07 2°36.357 5.7 360 7.7 102140 74
2009-03-30 12:54 51°16.907 2°36.555 3.3 -999 7.7 102140 75
2009-03-30 12:55 51°16.76 2°36.742 5.3 7 7.7 102150 74
2009-03-30 12:56 51°16.657 2°36.855 5.2 3 7.7 102150 74
2009-03-30 12:57 51°16.608 2°36.856 6.2 13 7.8 102150 75
2009-03-30 12:58 51°16.573 2°36.866 6.8 356 7.8 102150 75
2009-03-30 12:59 51°16.551 2°36.835 7.7 334 7.8 102140 74
2009-03-30 13:00 51°16.563 2°36.796 6.6 37 7.9 102140 74
2009-03-30 13:01 51°16.578 2°36.807 6.6 247 8 102150 72
2009-03-30 13:02 51°16.592 2°36.833 6.4 257 8.1 102150 73
2009-03-30 13:03 51°16.604 2°36.863 4.7 262 8.2 102160 72
2009-03-30 13:04 51°16.616 2°36.895 6.6 257 8.3 102150 72
2009-03-30 13:05 51°16.626 2°36.927 7.3 255 8.4 102150 72
2009-03-30 13:06 51°16.636 2°36.96 6.4 255 8.4 102160 71
2009-03-30 13:07 51°16.679 2°36.984 6.9 239 8.4 102150 72
2009-03-30 13:08 51°16.833 2°37.052 6.7 241 8.4 102150 71
2009-03-30 13:09 51°16.912 2°37.31 2.5 6 8.4 102160 71
2009-03-30 13:10 51°16.768 2°37.436 8.9 352 8.3 102140 68
2009-03-30 13:11 51°16.585 2°37.417 9.1 357 8 102130 69
2009-03-30 13:12 51°16.396 2°37.4 10.1 355 7.9 102130 71
2009-03-30 13:13 51°16.214 2°37.371 9.2 356 7.7 102130 70
2009-03-30 13:14 51°16.027 2°37.357 9.1 350 7.7 102130 70
2009-03-30 13:15 51°15.836 2°37.351 8.5 354 7.7 102130 70
2009-03-30 13:16 51°15.646 2°37.392 7.3 355 7.7 102140 70
2009-03-30 13:17 51°15.452 2°37.444 7.7 353 7.7 102140 71
2009-03-30 13:18 51°15.258 2°37.492 9.2 356 7.6 102140 71
2009-03-30 13:19 51°15.065 2°37.547 7.8 354 7.7 102140 71
2009-03-30 13:20 51°14.875 2°37.566 8 352 7.7 102140 71
2009-03-30 13:21 51°14.682 2°37.579 9.7 353 7.7 102140 71
2009-03-30 13:22 51°14.494 2°37.584 7.6 352 7.6 102140 70
2009-03-30 13:23 51°14.306 2°37.591 8.9 356 7.7 102130 70
2009-03-30 13:24 51°14.118 2°37.594 8 353 7.7 102130 70
2009-03-30 13:25 51°13.935 2°37.598 7.2 350 7.7 102130 70
2009-03-30 13:26 51°13.746 2°37.599 7.8 354 7.7 102130 70
2009-03-30 13:27 51°13.56 2°37.603 7.4 354 7.6 102130 70
2009-03-30 13:28 51°13.37 2°37.609 9 356 7.7 102130 71
2009-03-30 13:29 51°13.179 2°37.6 8.2 355 7.7 102130 71
2009-03-30 13:30 51°12.989 2°37.598 8.5 356 7.7 102130 70
2009-03-30 13:31 51°12.804 2°37.575 8.9 354 7.7 102130 70
2009-03-30 13:32 51°12.617 2°37.532 9.2 354 7.7 102120 70
2009-03-30 13:33 51°12.431 2°37.51 9.1 355 7.6 102120 69
2009-03-30 13:34 51°12.245 2°37.481 8.9 352 7.7 102120 69
2009-03-30 13:35 51°12.061 2°37.445 8.5 353 7.7 102120 69
2009-03-30 13:36 51°11.881 2°37.403 9.4 352 7.7 102120 70
2009-03-30 13:37 51°11.696 2°37.364 8.2 352 7.7 102110 69
2009-03-30 13:38 51°11.524 2°37.299 8.7 352 7.7 102120 69
2009-03-30 13:39 51°11.358 2°37.203 10.1 350 7.7 102110 70
2009-03-30 13:40 51°11.189 2°37.109 8.5 351 7.7 102110 69
2009-03-30 13:41 51°11.024 2°37.03 7.9 350 7.7 102110 70
2009-03-30 13:42 51°10.858 2°36.942 9.6 350 7.7 102120 70
2009-03-30 13:43 51°10.695 2°36.847 8.7 352 7.7 102120 69
2009-03-30 13:44 51°10.541 2°36.73 8.8 347 7.7 102120 70
2009-03-30 13:45 51°10.439 2°36.536 8.8 339 7.7 102120 70
2009-03-30 13:46 51°10.422 2°36.322 9.9 338 7.9 102120 70
2009-03-30 13:47 51°10.415 2°36.118 9.2 338 8.1 102120 70
2009-03-30 13:48 51°10.396 2°35.911 7.8 339 8.2 102120 69
2009-03-30 13:49 51°10.358 2°35.757 8 343 8.3 102120 68
2009-03-30 13:50 51°10.329 2°35.652 7.1 345 8.2 102110 67
2009-03-30 13:51 51°10.216 2°35.561 7 358 8 102110 67
2009-03-30 13:52 51°10.05 2°35.607 4.5 3 7.9 102110 68
2009-03-30 13:53 51°9.954 2°35.891 2.3 315 7.8 102120 69
2009-03-30 13:54 51°9.969 2°36.255 3 30 7.9 102120 70
2009-03-30 13:55 51°10.014 2°36.561 2.9 258 8 102130 69
2009-03-30 13:56 51°10.048 2°36.753 3.7 37 8.2 102110 69
2009-03-30 13:57 51°10.087 2°36.901 4.7 270 8.3 102120 69
2009-03-30 13:58 51°10.119 2°37.025 4.2 39 8.3 102120 67
2009-03-30 13:59 51°10.139 2°37.231 1 243 8.2 102120 66
2009-03-30 14:00 51°10.196 2°37.571 4.5 36 8.3 102120 67
2009-03-30 14:01 51°10.271 2°37.924 3.9 232 8.4 102120 67
2009-03-30 14:02 51°10.35 2°38.285 4.2 36 8.4 102120 66
2009-03-30 14:03 51°10.421 2°38.644 3.8 236 8.4 102120 67
2009-03-30 14:04 51°10.492 2°38.995 3.8 31 8.4 102120 66
2009-03-30 14:05 51°10.564 2°39.359 3.7 33 8.4 102120 66
2009-03-30 14:06 51°10.634 2°39.717 4.3 33 8.5 102120 66
2009-03-30 14:07 51°10.693 2°40.071 3.2 232 8.5 102120 66
2009-03-30 14:08 51°10.744 2°40.444 4.7 38 8.5 102120 66
2009-03-30 14:09 51°10.797 2°40.809 4 31 8.5 102120 67
2009-03-30 14:10 51°10.864 2°41.168 4.8 33 8.5 102120 66
2009-03-30 14:11 51°10.93 2°41.514 3.3 36 8.5 102120 66
2009-03-30 14:12 51°10.984 2°41.782 2.4 245 8.5 102120 66
2009-03-30 14:13 51°11.04 2°41.943 3.4 253 8.6 102120 67
2009-03-30 14:14 51°11.081 2°42.031 3.5 265 8.7 102120 67
2009-03-30 14:15 51°11.101 2°42.099 3.9 35 8.7 102130 66
2009-03-30 14:16 51°11.119 2°42.165 3.6 37 8.6 102130 66
2009-03-30 14:17 51°11.136 2°42.229 3.4 268 8.5 102120 66
2009-03-30 14:18 51°11.153 2°42.29 3.6 270 8.5 102130 66
2009-03-30 14:19 51°11.172 2°42.357 2.7 38 8.5 102120 66
2009-03-30 14:20 51°11.19 2°42.46 1.9 36 8.5 102120 66
2009-03-30 14:21 51°11.184 2°42.663 1.4 333 8.5 102120 67
2009-03-30 14:22 51°11.167 2°42.985 3.6 331 8.5 102120 67
2009-03-30 14:23 51°11.211 2°43.347 3.4 319 8.5 102120 66
2009-03-30 14:24 51°11.288 2°43.69 4.3 316 8.5 102110 66
2009-03-30 14:25 51°11.365 2°44.035 4.2 40 8.5 102120 66
2009-03-30 14:26 51°11.439 2°44.383 3.5 36 8.5 102120 66
2009-03-30 14:27 51°11.511 2°44.725 3.7 37 8.6 102130 66
2009-03-30 14:28 51°11.586 2°45.079 3.7 315 8.6 102120 66
2009-03-30 14:29 51°11.658 2°45.426 4.1 316 8.6 102130 66
2009-03-30 14:30 51°11.735 2°45.772 4.7 317 8.6 102120 66
2009-03-30 14:31 51°11.81 2°46.121 4 30 8.6 102120 66
2009-03-30 14:32 51°11.882 2°46.473 4.5 36 8.5 102120 66
2009-03-30 14:33 51°11.953 2°46.824 3.9 37 8.6 102120 66
2009-03-30 14:34 51°12.028 2°47.174 4 36 8.5 102120 66
2009-03-30 14:35 51°12.106 2°47.523 4.1 37 8.5 102120 66
2009-03-30 14:36 51°12.183 2°47.865 4.2 35 8.6 102120 67
2009-03-30 14:37 51°12.29 2°48.203 5 36 8.6 102120 66
2009-03-30 14:38 51°12.402 2°48.53 5.1 33 8.5 102120 66
2009-03-30 14:39 51°12.512 2°48.859 5.4 33 8.5 102120 67
2009-03-30 14:40 51°12.622 2°49.187 4.4 35 8.5 102110 67
2009-03-30 14:41 51°12.731 2°49.513 4.6 38 8.4 102120 67
2009-03-30 14:42 51°12.846 2°49.835 5.2 32 8.4 102120 67
2009-03-30 14:43 51°12.958 2°50.16 4.5 30 8.4 102110 66
2009-03-30 14:44 51°13.063 2°50.494 5.7 34 8.4 102120 66
2009-03-30 14:45 51°13.183 2°50.804 5 35 8.4 102110 67
2009-03-30 14:46 51°13.308 2°51.116 5.3 35 8.4 102110 67
2009-03-30 14:47 51°13.439 2°51.43 6 34 8.4 102110 67
2009-03-30 14:48 51°13.566 2°51.739 4.6 33 8.4 102110 67
2009-03-30 14:49 51°13.689 2°52.054 5.7 32 8.4 102110 67
2009-03-30 14:50 51°13.811 2°52.359 4.9 37 8.3 102120 67
2009-03-30 14:51 51°13.936 2°52.665 4.2 28 8.3 102110 68
2009-03-30 14:52 51°14.058 2°52.975 5.5 315 8.3 102110 68
2009-03-30 14:53 51°14.18 2°53.286 5.5 25 8.3 102120 68
2009-03-30 14:54 51°14.301 2°53.595 4.8 24 8.3 102120 68
2009-03-30 14:55 51°14.387 2°53.93 3.4 318 8.3 102120 68
2009-03-30 14:56 51°14.416 2°54.273 2.7 324 8.4 102120 68
2009-03-30 14:57 51°14.415 2°54.619 3.2 325 8.4 102120 68
2009-03-30 14:58 51°14.377 2°54.955 3.3 337 8.5 102120 68
2009-03-30 14:59 51°14.275 2°55.216 2.7 354 8.3 102120 67
2009-03-30 15:00 51°14.163 2°55.38 3.3 5 8.3 102120 68
2009-03-30 15:01 51°14.032 2°55.482 3.5 346 8.2 102120 68
2009-03-30 15:02 51°13.916 2°55.565 1.8 347 8.3 102120 68
2009-03-30 15:03 51°13.803 2°55.649 3.5 351 8.3 102110 67
2009-03-30 15:04 51°13.721 2°55.765 0.8 35 8.3 102120 67
2009-03-30 15:05 51°13.677 2°55.875 2.4 24 8.4 102120 68
2009-03-30 15:06 51°13.665 2°55.946 3 20 8.4 102120 65